sensor_id;sensor_type;location;lat;lon;timestamp;temperature;humidity
6307;DHT22;3186;54.062;9.962;2023-03-14T00:00:08;10.30;99.90
6307;DHT22;3186;54.062;9.962;2023-03-14T00:02:34;10.20;99.90
6307;DHT22;3186;54.062;9.962;2023-03-14T00:05:00;10.30;99.90
6307;DHT22;3186;54.062;9.962;2023-03-14T00:07:33;10.20;99.90
6307;DHT22;3186;54.062;9.962;2023-03-14T00:10:02;10.20;99.90
6307;DHT22;3186;54.062;9.962;2023-03-14T00:12:30;10.20;99.90
6307;DHT22;3186;54.062;9.962;2023-03-14T00:14:55;10.20;99.90
6307;DHT22;3186;54.062;9.962;2023-03-14T00:17:21;10.20;99.90
6307;DHT22;3186;54.062;9.962;2023-03-14T00:19:48;10.20;99.90
6307;DHT22;3186;54.062;9.962;2023-03-14T00:22:17;10.20;99.90
6307;DHT22;3186;54.062;9.962;2023-03-14T00:24:43;10.20;99.90
6307;DHT22;3186;54.062;9.962;2023-03-14T00:27:09;10.10;99.90
6307;DHT22;3186;54.062;9.962;2023-03-14T00:29:35;10.10;99.90
6307;DHT22;3186;54.062;9.962;2023-03-14T00:32:01;10.10;99.90
6307;DHT22;3186;54.062;9.962;2023-03-14T00:34:31;10.10;99.90
6307;DHT22;3186;54.062;9.962;2023-03-14T00:36:57;10.10;99.90
6307;DHT22;3186;54.062;9.962;2023-03-14T00:39:23;10.10;99.90
6307;DHT22;3186;54.062;9.962;2023-03-14T00:41:50;10.00;99.90
6307;DHT22;3186;54.062;9.962;2023-03-14T00:44:16;10.10;99.90
6307;DHT22;3186;54.062;9.962;2023-03-14T00:46:41;10.00;99.90
6307;DHT22;3186;54.062;9.962;2023-03-14T00:49:07;10.00;99.90
6307;DHT22;3186;54.062;9.962;2023-03-14T00:51:33;10.00;99.90
6307;DHT22;3186;54.062;9.962;2023-03-14T00:54:00;10.00;99.90
6307;DHT22;3186;54.062;9.962;2023-03-14T00:56:26;10.00;99.90
6307;DHT22;3186;54.062;9.962;2023-03-14T00:58:55;10.00;99.90
6307;DHT22;3186;54.062;9.962;2023-03-14T01:01:22;9.90;99.90
6307;DHT22;3186;54.062;9.962;2023-03-14T01:03:51;9.90;99.90
6307;DHT22;3186;54.062;9.962;2023-03-14T01:06:23;9.90;99.90
6307;DHT22;3186;54.062;9.962;2023-03-14T01:08:49;9.90;99.90
6307;DHT22;3186;54.062;9.962;2023-03-14T01:11:27;9.90;99.90
6307;DHT22;3186;54.062;9.962;2023-03-14T01:13:54;9.80;99.90
6307;DHT22;3186;54.062;9.962;2023-03-14T01:16:21;9.80;99.90
6307;DHT22;3186;54.062;9.962;2023-03-14T01:18:48;9.80;99.90
6307;DHT22;3186;54.062;9.962;2023-03-14T01:23:45;9.80;99.90
6307;DHT22;3186;54.062;9.962;2023-03-14T01:26:12;9.80;99.90
6307;DHT22;3186;54.062;9.962;2023-03-14T01:28:39;9.80;99.90
6307;DHT22;3186;54.062;9.962;2023-03-14T01:31:07;9.80;99.90
6307;DHT22;3186;54.062;9.962;2023-03-14T01:33:34;9.80;99.90
6307;DHT22;3186;54.062;9.962;2023-03-14T01:36:00;9.80;99.90
6307;DHT22;3186;54.062;9.962;2023-03-14T01:38:29;9.80;99.90
6307;DHT22;3186;54.062;9.962;2023-03-14T01:40:55;9.80;99.90
6307;DHT22;3186;54.062;9.962;2023-03-14T01:43:21;9.90;99.90
6307;DHT22;3186;54.062;9.962;2023-03-14T01:48:39;9.90;99.90
6307;DHT22;3186;54.062;9.962;2023-03-14T01:51:10;9.90;99.90
6307;DHT22;3186;54.062;9.962;2023-03-14T01:53:37;9.80;99.90
6307;DHT22;3186;54.062;9.962;2023-03-14T01:56:05;9.90;99.90
6307;DHT22;3186;54.062;9.962;2023-03-14T01:58:33;9.90;99.90
6307;DHT22;3186;54.062;9.962;2023-03-14T02:01:03;9.90;99.90
6307;DHT22;3186;54.062;9.962;2023-03-14T02:03:30;9.90;99.90
6307;DHT22;3186;54.062;9.962;2023-03-14T02:06:04;10.00;99.90
6307;DHT22;3186;54.062;9.962;2023-03-14T02:08:32;10.00;99.90
6307;DHT22;3186;54.062;9.962;2023-03-14T02:11:02;10.00;99.90
6307;DHT22;3186;54.062;9.962;2023-03-14T02:13:43;10.00;99.90
6307;DHT22;3186;54.062;9.962;2023-03-14T02:16:30;10.00;99.90
6307;DHT22;3186;54.062;9.962;2023-03-14T02:19:25;9.90;99.90
6307;DHT22;3186;54.062;9.962;2023-03-14T02:22:12;10.00;99.90
6307;DHT22;3186;54.062;9.962;2023-03-14T02:27:38;10.10;99.90
6307;DHT22;3186;54.062;9.962;2023-03-14T02:30:11;9.90;99.90
6307;DHT22;3186;54.062;9.962;2023-03-14T02:32:43;10.00;99.90
6307;DHT22;3186;54.062;9.962;2023-03-14T02:35:17;10.10;99.90
6307;DHT22;3186;54.062;9.962;2023-03-14T02:40:13;10.00;99.90
6307;DHT22;3186;54.062;9.962;2023-03-14T02:42:41;10.10;99.90
6307;DHT22;3186;54.062;9.962;2023-03-14T02:47:37;10.10;99.90
6307;DHT22;3186;54.062;9.962;2023-03-14T02:52:41;10.10;99.90
6307;DHT22;3186;54.062;9.962;2023-03-14T02:55:08;10.10;99.90
6307;DHT22;3186;54.062;9.962;2023-03-14T02:57:35;10.00;99.90
6307;DHT22;3186;54.062;9.962;2023-03-14T03:00:02;10.10;99.90
6307;DHT22;3186;54.062;9.962;2023-03-14T03:02:34;10.10;99.90
6307;DHT22;3186;54.062;9.962;2023-03-14T03:05:00;10.10;99.90
6307;DHT22;3186;54.062;9.962;2023-03-14T03:07:26;10.20;99.90
6307;DHT22;3186;54.062;9.962;2023-03-14T03:09:54;10.10;99.90
6307;DHT22;3186;54.062;9.962;2023-03-14T03:12:20;10.10;99.90
6307;DHT22;3186;54.062;9.962;2023-03-14T03:14:46;10.20;99.90
6307;DHT22;3186;54.062;9.962;2023-03-14T03:17:11;10.20;99.90
6307;DHT22;3186;54.062;9.962;2023-03-14T03:22:04;10.20;99.90
6307;DHT22;3186;54.062;9.962;2023-03-14T03:24:29;10.20;99.90
6307;DHT22;3186;54.062;9.962;2023-03-14T03:26:55;10.20;99.90
6307;DHT22;3186;54.062;9.962;2023-03-14T03:29:21;10.30;99.90
6307;DHT22;3186;54.062;9.962;2023-03-14T03:31:47;10.30;99.90
6307;DHT22;3186;54.062;9.962;2023-03-14T03:34:13;10.30;99.90
6307;DHT22;3186;54.062;9.962;2023-03-14T03:36:41;10.20;99.90
6307;DHT22;3186;54.062;9.962;2023-03-14T03:39:07;10.30;99.90
6307;DHT22;3186;54.062;9.962;2023-03-14T03:41:33;10.40;99.90
6307;DHT22;3186;54.062;9.962;2023-03-14T03:44:00;10.20;99.90
6307;DHT22;3186;54.062;9.962;2023-03-14T03:46:26;10.20;99.90
6307;DHT22;3186;54.062;9.962;2023-03-14T03:48:56;10.20;99.90
6307;DHT22;3186;54.062;9.962;2023-03-14T03:51:22;10.20;99.90
6307;DHT22;3186;54.062;9.962;2023-03-14T03:53:48;10.20;99.90
6307;DHT22;3186;54.062;9.962;2023-03-14T03:56:19;10.20;99.90
6307;DHT22;3186;54.062;9.962;2023-03-14T03:58:45;10.20;99.90
6307;DHT22;3186;54.062;9.962;2023-03-14T04:01:11;10.10;99.90
6307;DHT22;3186;54.062;9.962;2023-03-14T04:03:37;10.10;99.90
6307;DHT22;3186;54.062;9.962;2023-03-14T04:06:09;10.10;99.90
6307;DHT22;3186;54.062;9.962;2023-03-14T04:08:37;10.00;99.90
6307;DHT22;3186;54.062;9.962;2023-03-14T04:11:05;10.00;99.90
6307;DHT22;3186;54.062;9.962;2023-03-14T04:13:45;10.00;99.90
6307;DHT22;3186;54.062;9.962;2023-03-14T04:16:15;10.00;99.90
6307;DHT22;3186;54.062;9.962;2023-03-14T04:18:42;10.00;99.90
6307;DHT22;3186;54.062;9.962;2023-03-14T04:21:07;10.10;99.90
6307;DHT22;3186;54.062;9.962;2023-03-14T04:23:43;10.10;99.90
6307;DHT22;3186;54.062;9.962;2023-03-14T04:26:10;10.10;99.90
6307;DHT22;3186;54.062;9.962;2023-03-14T04:28:39;10.00;99.90
6307;DHT22;3186;54.062;9.962;2023-03-14T04:31:13;9.80;99.90
6307;DHT22;3186;54.062;9.962;2023-03-14T04:33:39;9.70;99.90
6307;DHT22;3186;54.062;9.962;2023-03-14T04:36:07;9.80;99.90
6307;DHT22;3186;54.062;9.962;2023-03-14T04:38:33;9.70;99.90
6307;DHT22;3186;54.062;9.962;2023-03-14T04:41:00;9.70;99.90
6307;DHT22;3186;54.062;9.962;2023-03-14T04:43:30;9.70;99.90
6307;DHT22;3186;54.062;9.962;2023-03-14T04:46:02;9.60;99.90
6307;DHT22;3186;54.062;9.962;2023-03-14T04:48:29;9.60;99.90
6307;DHT22;3186;54.062;9.962;2023-03-14T04:50:55;9.60;99.90
6307;DHT22;3186;54.062;9.962;2023-03-14T04:53:21;9.50;99.90
6307;DHT22;3186;54.062;9.962;2023-03-14T04:55:51;9.50;99.90
6307;DHT22;3186;54.062;9.962;2023-03-14T04:58:19;9.50;99.90
6307;DHT22;3186;54.062;9.962;2023-03-14T05:00:47;9.60;99.90
6307;DHT22;3186;54.062;9.962;2023-03-14T05:03:33;9.50;99.90
6307;DHT22;3186;54.062;9.962;2023-03-14T05:06:18;9.40;99.90
6307;DHT22;3186;54.062;9.962;2023-03-14T05:09:03;9.40;99.90
6307;DHT22;3186;54.062;9.962;2023-03-14T05:11:51;9.50;99.90
6307;DHT22;3186;54.062;9.962;2023-03-14T05:14:46;9.50;99.90
6307;DHT22;3186;54.062;9.962;2023-03-14T05:17:24;9.50;99.90
6307;DHT22;3186;54.062;9.962;2023-03-14T05:20:22;9.50;99.90
6307;DHT22;3186;54.062;9.962;2023-03-14T05:23:07;9.50;99.90
6307;DHT22;3186;54.062;9.962;2023-03-14T05:25:52;9.40;99.90
6307;DHT22;3186;54.062;9.962;2023-03-14T05:28:32;9.40;99.90
6307;DHT22;3186;54.062;9.962;2023-03-14T05:31:11;9.40;99.90
6307;DHT22;3186;54.062;9.962;2023-03-14T05:33:45;9.40;99.90
6307;DHT22;3186;54.062;9.962;2023-03-14T05:36:34;9.40;99.90
6307;DHT22;3186;54.062;9.962;2023-03-14T05:39:00;9.30;99.90
6307;DHT22;3186;54.062;9.962;2023-03-14T05:41:44;9.30;99.90
6307;DHT22;3186;54.062;9.962;2023-03-14T05:44:26;9.30;99.90
6307;DHT22;3186;54.062;9.962;2023-03-14T05:46:55;9.30;99.90
6307;DHT22;3186;54.062;9.962;2023-03-14T05:49:33;9.30;99.90
6307;DHT22;3186;54.062;9.962;2023-03-14T05:52:10;9.30;99.90
6307;DHT22;3186;54.062;9.962;2023-03-14T05:54:54;9.30;99.90
6307;DHT22;3186;54.062;9.962;2023-03-14T05:57:39;9.30;99.90
6307;DHT22;3186;54.062;9.962;2023-03-14T06:00:40;9.30;99.90
6307;DHT22;3186;54.062;9.962;2023-03-14T06:03:38;9.40;99.90
6307;DHT22;3186;54.062;9.962;2023-03-14T06:06:05;9.40;99.90
6307;DHT22;3186;54.062;9.962;2023-03-14T06:08:31;9.30;99.90
6307;DHT22;3186;54.062;9.962;2023-03-14T06:10:57;9.30;99.90
6307;DHT22;3186;54.062;9.962;2023-03-14T06:13:28;9.30;99.90
6307;DHT22;3186;54.062;9.962;2023-03-14T06:15:54;9.30;99.90
6307;DHT22;3186;54.062;9.962;2023-03-14T06:18:20;9.30;99.90
6307;DHT22;3186;54.062;9.962;2023-03-14T06:20:46;9.30;99.90
6307;DHT22;3186;54.062;9.962;2023-03-14T06:23:21;9.20;99.90
6307;DHT22;3186;54.062;9.962;2023-03-14T06:25:47;9.20;99.90
6307;DHT22;3186;54.062;9.962;2023-03-14T06:28:13;9.20;99.90
6307;DHT22;3186;54.062;9.962;2023-03-14T06:30:39;9.20;99.90
6307;DHT22;3186;54.062;9.962;2023-03-14T06:33:09;9.30;99.90
6307;DHT22;3186;54.062;9.962;2023-03-14T06:35:43;9.30;99.90
6307;DHT22;3186;54.062;9.962;2023-03-14T06:38:13;9.30;99.90
6307;DHT22;3186;54.062;9.962;2023-03-14T06:40:40;9.30;99.90
6307;DHT22;3186;54.062;9.962;2023-03-14T06:43:10;9.30;99.90
6307;DHT22;3186;54.062;9.962;2023-03-14T06:45:38;9.30;99.90
6307;DHT22;3186;54.062;9.962;2023-03-14T06:48:05;9.30;99.90
6307;DHT22;3186;54.062;9.962;2023-03-14T06:50:44;9.40;99.90
6307;DHT22;3186;54.062;9.962;2023-03-14T06:53:10;9.40;99.90
6307;DHT22;3186;54.062;9.962;2023-03-14T06:55:39;9.40;99.90
6307;DHT22;3186;54.062;9.962;2023-03-14T06:58:06;9.40;99.90
6307;DHT22;3186;54.062;9.962;2023-03-14T07:00:38;9.40;99.90
6307;DHT22;3186;54.062;9.962;2023-03-14T07:03:04;9.40;99.90
6307;DHT22;3186;54.062;9.962;2023-03-14T07:05:37;9.50;99.90
6307;DHT22;3186;54.062;9.962;2023-03-14T07:08:07;9.40;99.90
6307;DHT22;3186;54.062;9.962;2023-03-14T07:10:34;9.40;99.90
6307;DHT22;3186;54.062;9.962;2023-03-14T07:13:00;9.50;99.90
6307;DHT22;3186;54.062;9.962;2023-03-14T07:15:29;9.50;99.90
6307;DHT22;3186;54.062;9.962;2023-03-14T07:18:00;9.50;99.90
6307;DHT22;3186;54.062;9.962;2023-03-14T07:20:28;9.50;99.90
6307;DHT22;3186;54.062;9.962;2023-03-14T07:22:55;9.50;99.90
6307;DHT22;3186;54.062;9.962;2023-03-14T07:25:33;9.50;99.90
6307;DHT22;3186;54.062;9.962;2023-03-14T07:27:59;9.50;99.90
6307;DHT22;3186;54.062;9.962;2023-03-14T07:30:25;9.60;99.90
6307;DHT22;3186;54.062;9.962;2023-03-14T07:32:52;9.60;99.90
6307;DHT22;3186;54.062;9.962;2023-03-14T07:35:21;9.60;99.90
6307;DHT22;3186;54.062;9.962;2023-03-14T07:37:47;9.60;99.90
6307;DHT22;3186;54.062;9.962;2023-03-14T07:40:14;9.60;99.90
6307;DHT22;3186;54.062;9.962;2023-03-14T07:42:44;9.70;99.90
6307;DHT22;3186;54.062;9.962;2023-03-14T07:45:25;9.60;99.90
6307;DHT22;3186;54.062;9.962;2023-03-14T07:47:51;9.60;99.90
6307;DHT22;3186;54.062;9.962;2023-03-14T07:50:16;9.70;99.90
6307;DHT22;3186;54.062;9.962;2023-03-14T07:52:42;9.70;99.90
6307;DHT22;3186;54.062;9.962;2023-03-14T07:55:08;9.60;99.90
6307;DHT22;3186;54.062;9.962;2023-03-14T07:57:34;9.60;99.90
6307;DHT22;3186;54.062;9.962;2023-03-14T08:00:00;9.60;99.90
6307;DHT22;3186;54.062;9.962;2023-03-14T08:02:26;9.60;99.90
6307;DHT22;3186;54.062;9.962;2023-03-14T08:04:52;9.70;99.90
6307;DHT22;3186;54.062;9.962;2023-03-14T08:07:18;9.80;99.90
6307;DHT22;3186;54.062;9.962;2023-03-14T08:09:44;9.70;99.90
6307;DHT22;3186;54.062;9.962;2023-03-14T08:12:10;9.70;99.90
6307;DHT22;3186;54.062;9.962;2023-03-14T08:14:36;9.80;99.90
6307;DHT22;3186;54.062;9.962;2023-03-14T08:17:01;9.80;99.90
6307;DHT22;3186;54.062;9.962;2023-03-14T08:19:28;9.80;99.90
6307;DHT22;3186;54.062;9.962;2023-03-14T08:21:53;9.80;99.90
6307;DHT22;3186;54.062;9.962;2023-03-14T08:24:19;9.80;99.90
6307;DHT22;3186;54.062;9.962;2023-03-14T08:26:45;9.80;99.90
6307;DHT22;3186;54.062;9.962;2023-03-14T08:29:11;9.80;99.90
6307;DHT22;3186;54.062;9.962;2023-03-14T08:31:38;9.80;99.90
6307;DHT22;3186;54.062;9.962;2023-03-14T08:34:04;9.70;99.90
6307;DHT22;3186;54.062;9.962;2023-03-14T08:36:32;9.70;99.90
6307;DHT22;3186;54.062;9.962;2023-03-14T08:38:58;9.70;99.90
6307;DHT22;3186;54.062;9.962;2023-03-14T08:41:24;9.70;99.90
6307;DHT22;3186;54.062;9.962;2023-03-14T08:43:50;9.70;99.90
6307;DHT22;3186;54.062;9.962;2023-03-14T08:46:16;9.70;99.90
6307;DHT22;3186;54.062;9.962;2023-03-14T08:48:42;9.70;99.90
6307;DHT22;3186;54.062;9.962;2023-03-14T08:51:09;9.70;99.90
6307;DHT22;3186;54.062;9.962;2023-03-14T08:53:36;9.70;99.90
6307;DHT22;3186;54.062;9.962;2023-03-14T08:56:03;9.70;99.90
6307;DHT22;3186;54.062;9.962;2023-03-14T08:58:31;9.70;99.90
6307;DHT22;3186;54.062;9.962;2023-03-14T09:00:57;9.70;99.90
6307;DHT22;3186;54.062;9.962;2023-03-14T09:03:24;9.70;99.90
6307;DHT22;3186;54.062;9.962;2023-03-14T09:05:51;9.70;99.90
6307;DHT22;3186;54.062;9.962;2023-03-14T09:08:17;9.70;99.90
6307;DHT22;3186;54.062;9.962;2023-03-14T09:10:43;9.70;99.90
6307;DHT22;3186;54.062;9.962;2023-03-14T09:13:09;9.70;99.90
6307;DHT22;3186;54.062;9.962;2023-03-14T09:15:35;9.70;99.90
6307;DHT22;3186;54.062;9.962;2023-03-14T09:18:01;9.50;99.90
6307;DHT22;3186;54.062;9.962;2023-03-14T09:20:27;9.20;99.90
6307;DHT22;3186;54.062;9.962;2023-03-14T09:22:53;9.10;99.90
6307;DHT22;3186;54.062;9.962;2023-03-14T09:25:19;9.00;99.90
6307;DHT22;3186;54.062;9.962;2023-03-14T09:27:45;9.00;99.90
6307;DHT22;3186;54.062;9.962;2023-03-14T09:30:11;9.00;99.90
6307;DHT22;3186;54.062;9.962;2023-03-14T09:32:37;9.00;99.90
6307;DHT22;3186;54.062;9.962;2023-03-14T09:35:03;9.00;99.90
6307;DHT22;3186;54.062;9.962;2023-03-14T09:37:29;8.90;99.90
6307;DHT22;3186;54.062;9.962;2023-03-14T09:39:55;8.80;99.90
6307;DHT22;3186;54.062;9.962;2023-03-14T09:42:24;8.70;99.90
6307;DHT22;3186;54.062;9.962;2023-03-14T09:45:00;8.70;99.90
6307;DHT22;3186;54.062;9.962;2023-03-14T09:47:28;8.70;99.90
6307;DHT22;3186;54.062;9.962;2023-03-14T09:49:54;8.40;99.90
6307;DHT22;3186;54.062;9.962;2023-03-14T09:52:40;8.40;99.90
6307;DHT22;3186;54.062;9.962;2023-03-14T09:55:15;8.30;99.90
6307;DHT22;3186;54.062;9.962;2023-03-14T09:57:44;8.30;99.90
6307;DHT22;3186;54.062;9.962;2023-03-14T10:02:42;8.20;99.90
6307;DHT22;3186;54.062;9.962;2023-03-14T10:05:17;8.30;99.90
6307;DHT22;3186;54.062;9.962;2023-03-14T10:07:50;8.30;99.90
6307;DHT22;3186;54.062;9.962;2023-03-14T10:10:19;8.00;99.90
6307;DHT22;3186;54.062;9.962;2023-03-14T10:12:48;7.90;99.90
6307;DHT22;3186;54.062;9.962;2023-03-14T10:15:30;8.00;99.90
6307;DHT22;3186;54.062;9.962;2023-03-14T10:17:59;7.80;99.90
6307;DHT22;3186;54.062;9.962;2023-03-14T10:20:38;7.90;99.90
6307;DHT22;3186;54.062;9.962;2023-03-14T10:23:23;8.10;99.90
6307;DHT22;3186;54.062;9.962;2023-03-14T10:31:06;7.80;99.90
6307;DHT22;3186;54.062;9.962;2023-03-14T10:33:34;7.60;99.90
6307;DHT22;3186;54.062;9.962;2023-03-14T10:38:41;7.50;99.90
6307;DHT22;3186;54.062;9.962;2023-03-14T10:41:40;7.50;99.90
6307;DHT22;3186;54.062;9.962;2023-03-14T10:44:08;7.70;99.90
6307;DHT22;3186;54.062;9.962;2023-03-14T10:46:36;7.50;99.90
6307;DHT22;3186;54.062;9.962;2023-03-14T10:49:35;7.60;99.90
6307;DHT22;3186;54.062;9.962;2023-03-14T10:52:14;7.60;99.90
6307;DHT22;3186;54.062;9.962;2023-03-14T10:54:40;7.50;99.90
6307;DHT22;3186;54.062;9.962;2023-03-14T10:57:06;7.50;99.90
6307;DHT22;3186;54.062;9.962;2023-03-14T10:59:39;7.50;99.90
6307;DHT22;3186;54.062;9.962;2023-03-14T11:02:39;7.40;99.90
6307;DHT22;3186;54.062;9.962;2023-03-14T11:05:29;7.40;99.90
6307;DHT22;3186;54.062;9.962;2023-03-14T11:08:09;7.30;99.90
6307;DHT22;3186;54.062;9.962;2023-03-14T11:10:39;7.30;99.90
6307;DHT22;3186;54.062;9.962;2023-03-14T11:16:33;7.40;99.90
6307;DHT22;3186;54.062;9.962;2023-03-14T11:19:17;7.40;99.90
6307;DHT22;3186;54.062;9.962;2023-03-14T11:29:40;7.50;99.90
6307;DHT22;3186;54.062;9.962;2023-03-14T11:32:23;7.50;99.90
6307;DHT22;3186;54.062;9.962;2023-03-14T11:34:50;7.50;99.90
6307;DHT22;3186;54.062;9.962;2023-03-14T11:37:36;7.50;99.90
6307;DHT22;3186;54.062;9.962;2023-03-14T11:40:20;7.40;99.90
6307;DHT22;3186;54.062;9.962;2023-03-14T11:42:59;7.50;99.90
6307;DHT22;3186;54.062;9.962;2023-03-14T11:45:40;7.60;99.90
6307;DHT22;3186;54.062;9.962;2023-03-14T11:50:52;7.60;99.90
6307;DHT22;3186;54.062;9.962;2023-03-14T11:53:48;7.60;99.90
6307;DHT22;3186;54.062;9.962;2023-03-14T11:59:19;7.60;99.90
6307;DHT22;3186;54.062;9.962;2023-03-14T12:02:03;7.70;99.90
6307;DHT22;3186;54.062;9.962;2023-03-14T12:04:40;7.70;99.90
6307;DHT22;3186;54.062;9.962;2023-03-14T12:07:39;7.70;99.90
6307;DHT22;3186;54.062;9.962;2023-03-14T12:10:08;7.70;99.90
6307;DHT22;3186;54.062;9.962;2023-03-14T12:12:35;7.70;99.90
6307;DHT22;3186;54.062;9.962;2023-03-14T12:15:03;7.60;99.90
6307;DHT22;3186;54.062;9.962;2023-03-14T12:17:40;7.60;99.90
6307;DHT22;3186;54.062;9.962;2023-03-14T12:20:26;7.70;99.90
6307;DHT22;3186;54.062;9.962;2023-03-14T12:22:53;7.80;99.90
6307;DHT22;3186;54.062;9.962;2023-03-14T12:25:24;7.80;99.90
6307;DHT22;3186;54.062;9.962;2023-03-14T12:30:33;7.80;99.90
6307;DHT22;3186;54.062;9.962;2023-03-14T12:35:51;7.90;99.90
6307;DHT22;3186;54.062;9.962;2023-03-14T12:43:30;7.60;99.90
6307;DHT22;3186;54.062;9.962;2023-03-14T12:48:41;7.60;99.90
6307;DHT22;3186;54.062;9.962;2023-03-14T12:51:19;7.80;99.90
6307;DHT22;3186;54.062;9.962;2023-03-14T12:56:28;7.60;99.90
6307;DHT22;3186;54.062;9.962;2023-03-14T13:01:59;7.50;99.90
6307;DHT22;3186;54.062;9.962;2023-03-14T13:04:46;7.50;99.90
6307;DHT22;3186;54.062;9.962;2023-03-14T13:08:13;7.50;99.90
6307;DHT22;3186;54.062;9.962;2023-03-14T13:10:30;7.50;99.90
6307;DHT22;3186;54.062;9.962;2023-03-14T13:18:15;7.80;99.90
6307;DHT22;3186;54.062;9.962;2023-03-14T13:20:46;7.60;93.50
6307;DHT22;3186;54.062;9.962;2023-03-14T13:23:26;7.50;99.90
6307;DHT22;3186;54.062;9.962;2023-03-14T13:25:53;7.60;99.90
6307;DHT22;3186;54.062;9.962;2023-03-14T13:28:19;7.60;99.90
6307;DHT22;3186;54.062;9.962;2023-03-14T13:30:50;7.70;99.90
6307;DHT22;3186;54.062;9.962;2023-03-14T13:33:21;7.80;99.90
6307;DHT22;3186;54.062;9.962;2023-03-14T13:35:54;7.50;70.30
6307;DHT22;3186;54.062;9.962;2023-03-14T13:38:23;7.60;99.90
6307;DHT22;3186;54.062;9.962;2023-03-14T13:40:51;7.50;85.90
6307;DHT22;3186;54.062;9.962;2023-03-14T13:43:32;7.60;99.90
6307;DHT22;3186;54.062;9.962;2023-03-14T13:46:22;7.60;99.90
6307;DHT22;3186;54.062;9.962;2023-03-14T13:49:01;7.60;99.90
6307;DHT22;3186;54.062;9.962;2023-03-14T13:51:28;7.50;99.90
6307;DHT22;3186;54.062;9.962;2023-03-14T13:53:57;7.60;99.90
6307;DHT22;3186;54.062;9.962;2023-03-14T13:56:30;7.60;99.90
6307;DHT22;3186;54.062;9.962;2023-03-14T13:58:57;7.60;85.30
6307;DHT22;3186;54.062;9.962;2023-03-14T14:01:32;7.60;99.90
6307;DHT22;3186;54.062;9.962;2023-03-14T14:04:05;7.40;56.20
6307;DHT22;3186;54.062;9.962;2023-03-14T14:06:39;7.70;99.90
6307;DHT22;3186;54.062;9.962;2023-03-14T14:09:39;7.60;92.00
6307;DHT22;3186;54.062;9.962;2023-03-14T14:12:08;7.50;99.90
6307;DHT22;3186;54.062;9.962;2023-03-14T14:17:27;7.50;73.40
6307;DHT22;3186;54.062;9.962;2023-03-14T14:19:55;7.40;66.10
6307;DHT22;3186;54.062;9.962;2023-03-14T14:22:22;7.40;99.90
6307;DHT22;3186;54.062;9.962;2023-03-14T14:24:48;7.50;99.90
6307;DHT22;3186;54.062;9.962;2023-03-14T14:27:17;7.60;99.90
6307;DHT22;3186;54.062;9.962;2023-03-14T14:29:44;7.80;99.90
6307;DHT22;3186;54.062;9.962;2023-03-14T14:32:14;7.80;99.90
6307;DHT22;3186;54.062;9.962;2023-03-14T14:34:41;7.60;99.90
6307;DHT22;3186;54.062;9.962;2023-03-14T14:39:52;7.80;92.70
6307;DHT22;3186;54.062;9.962;2023-03-14T14:42:21;7.80;93.90
6307;DHT22;3186;54.062;9.962;2023-03-14T14:44:51;7.60;96.20
6307;DHT22;3186;54.062;9.962;2023-03-14T14:47:23;7.60;99.90
6307;DHT22;3186;54.062;9.962;2023-03-14T14:49:51;7.50;99.90
6307;DHT22;3186;54.062;9.962;2023-03-14T14:52:20;5.90;86.50
6307;DHT22;3186;54.062;9.962;2023-03-14T14:54:54;7.70;79.40
6307;DHT22;3186;54.062;9.962;2023-03-14T14:57:25;7.60;62.80
6307;DHT22;3186;54.062;9.962;2023-03-14T15:00:01;7.70;95.80
6307;DHT22;3186;54.062;9.962;2023-03-14T15:02:40;7.70;91.30
6307;DHT22;3186;54.062;9.962;2023-03-14T15:05:19;7.70;99.90
6307;DHT22;3186;54.062;9.962;2023-03-14T15:07:45;7.60;99.90
6307;DHT22;3186;54.062;9.962;2023-03-14T15:10:14;7.40;90.00
6307;DHT22;3186;54.062;9.962;2023-03-14T15:12:40;7.40;99.70
6307;DHT22;3186;54.062;9.962;2023-03-14T15:15:08;7.40;99.90
6307;DHT22;3186;54.062;9.962;2023-03-14T15:17:35;7.30;92.10
6307;DHT22;3186;54.062;9.962;2023-03-14T15:20:02;7.50;97.00
6307;DHT22;3186;54.062;9.962;2023-03-14T15:22:30;7.40;49.80
6307;DHT22;3186;54.062;9.962;2023-03-14T15:24:56;7.40;92.90
6307;DHT22;3186;54.062;9.962;2023-03-14T15:27:22;7.40;77.40
6307;DHT22;3186;54.062;9.962;2023-03-14T15:29:48;7.60;91.80
6307;DHT22;3186;54.062;9.962;2023-03-14T15:32:16;7.60;99.90
6307;DHT22;3186;54.062;9.962;2023-03-14T15:34:43;7.60;99.90
6307;DHT22;3186;54.062;9.962;2023-03-14T15:37:12;7.50;99.90
6307;DHT22;3186;54.062;9.962;2023-03-14T15:39:39;7.50;81.70
6307;DHT22;3186;54.062;9.962;2023-03-14T15:42:05;7.20;43.40
6307;DHT22;3186;54.062;9.962;2023-03-14T15:44:31;7.30;99.90
6307;DHT22;3186;54.062;9.962;2023-03-14T15:46:57;7.40;68.00
6307;DHT22;3186;54.062;9.962;2023-03-14T15:49:23;7.60;99.90
6307;DHT22;3186;54.062;9.962;2023-03-14T15:51:49;7.50;99.90
6307;DHT22;3186;54.062;9.962;2023-03-14T15:54:15;7.30;31.00
6307;DHT22;3186;54.062;9.962;2023-03-14T15:56:40;7.40;99.90
6307;DHT22;3186;54.062;9.962;2023-03-14T15:59:06;7.40;91.30
6307;DHT22;3186;54.062;9.962;2023-03-14T16:01:32;7.10;59.40
6307;DHT22;3186;54.062;9.962;2023-03-14T16:03:58;7.30;81.30
6307;DHT22;3186;54.062;9.962;2023-03-14T16:06:24;7.30;81.50
6307;DHT22;3186;54.062;9.962;2023-03-14T16:08:50;7.30;99.90
6307;DHT22;3186;54.062;9.962;2023-03-14T16:11:16;7.10;86.10
6307;DHT22;3186;54.062;9.962;2023-03-14T16:13:43;6.90;55.10
6307;DHT22;3186;54.062;9.962;2023-03-14T16:16:09;7.20;98.80
6307;DHT22;3186;54.062;9.962;2023-03-14T16:18:38;7.00;99.90
6307;DHT22;3186;54.062;9.962;2023-03-14T16:21:11;7.10;99.90
6307;DHT22;3186;54.062;9.962;2023-03-14T16:23:38;6.90;95.10
6307;DHT22;3186;54.062;9.962;2023-03-14T16:26:09;6.90;66.70
6307;DHT22;3186;54.062;9.962;2023-03-14T16:28:35;6.90;99.90
6307;DHT22;3186;54.062;9.962;2023-03-14T16:31:10;6.80;99.90
6307;DHT22;3186;54.062;9.962;2023-03-14T16:33:37;6.60;79.70
6307;DHT22;3186;54.062;9.962;2023-03-14T16:36:06;6.70;94.30
6307;DHT22;3186;54.062;9.962;2023-03-14T16:38:35;6.60;94.80
6307;DHT22;3186;54.062;9.962;2023-03-14T16:41:21;6.70;99.90
6307;DHT22;3186;54.062;9.962;2023-03-14T16:43:48;6.50;99.90
6307;DHT22;3186;54.062;9.962;2023-03-14T16:46:19;6.60;99.90
6307;DHT22;3186;54.062;9.962;2023-03-14T16:48:46;6.50;99.40
6307;DHT22;3186;54.062;9.962;2023-03-14T16:51:13;6.70;99.90
6307;DHT22;3186;54.062;9.962;2023-03-14T16:53:41;6.30;99.90
6307;DHT22;3186;54.062;9.962;2023-03-14T16:56:07;6.80;99.90
6307;DHT22;3186;54.062;9.962;2023-03-14T16:58:33;6.70;99.90
6307;DHT22;3186;54.062;9.962;2023-03-14T17:00:59;6.40;99.90
6307;DHT22;3186;54.062;9.962;2023-03-14T17:03:35;6.20;99.90
6307;DHT22;3186;54.062;9.962;2023-03-14T17:06:01;6.30;94.90
6307;DHT22;3186;54.062;9.962;2023-03-14T17:08:28;6.50;99.90
6307;DHT22;3186;54.062;9.962;2023-03-14T17:10:54;6.60;99.90
6307;DHT22;3186;54.062;9.962;2023-03-14T17:13:20;6.50;99.90
6307;DHT22;3186;54.062;9.962;2023-03-14T17:15:57;6.40;99.90
6307;DHT22;3186;54.062;9.962;2023-03-14T17:18:24;6.30;99.90
6307;DHT22;3186;54.062;9.962;2023-03-14T17:20:54;6.00;97.80
6307;DHT22;3186;54.062;9.962;2023-03-14T17:23:22;6.10;99.90
6307;DHT22;3186;54.062;9.962;2023-03-14T17:25:49;6.20;99.90
6307;DHT22;3186;54.062;9.962;2023-03-14T17:28:16;6.00;99.90
6307;DHT22;3186;54.062;9.962;2023-03-14T17:30:43;6.20;99.90
6307;DHT22;3186;54.062;9.962;2023-03-14T17:33:09;6.20;99.90
6307;DHT22;3186;54.062;9.962;2023-03-14T17:35:35;6.00;99.90
6307;DHT22;3186;54.062;9.962;2023-03-14T17:38:01;6.00;99.90
6307;DHT22;3186;54.062;9.962;2023-03-14T17:40:27;5.90;99.90
6307;DHT22;3186;54.062;9.962;2023-03-14T17:42:53;5.90;99.90
6307;DHT22;3186;54.062;9.962;2023-03-14T17:45:19;5.90;99.90
6307;DHT22;3186;54.062;9.962;2023-03-14T17:47:45;5.80;99.90
6307;DHT22;3186;54.062;9.962;2023-03-14T17:50:11;5.70;99.90